CheckWX is a tool to help pilots better visualize weather data.  It is not intended as a substitute for an official pre-flight weather briefing.

00:47:40 UTC

KCHS METAR
Charleston AFB / Intl Airport
Charleston, South Carolina, USA
Current

52 mins ago

KCHS 162356Z 01005KT 10SM SCT250 27/19 A2993 RMK AO2 SLP133 T02720194 10328 20272 52003
Observed
Sep-16 @ 23:56 UTC
Wind
  • 010° at 5 KTS
Visibility
10 SM
Flight Rules
VFR
Cloud Levels
  • Scattered at 25,000' AGL
Temperature
27°C / 81°F
Dewpoint
19°C / 66°F
Heat Index
28°C / 83°F
Humidity
62%
Altimeter
29.93" Hg
Pressure
1013.52 hPa
Previous

2 hours ago

KCHS 162256Z 02006KT 10SM FEW045 SCT250 29/19 A2992 RMK AO2 SLP132 T02940194
Observed
Sep-16 @ 22:56 UTC
Wind
  • 020° at 6 KTS
Visibility
10 SM
Flight Rules
VFR
Cloud Levels
  • Few at 4,500' AGL
  • Scattered at 25,000' AGL
Temperature
29°C / 84°F
Dewpoint
19°C / 66°F
Heat Index
30°C / 86°F
Humidity
55%
Altimeter
29.92" Hg
Pressure
1013.22 hPa
Previous

3 hours ago

KCHS 162156Z 36012KT 10SM FEW050 BKN250 32/19 A2992 RMK AO2 SLP132 T03170189
Observed
Sep-16 @ 21:56 UTC
Wind
  • 360° at 12 KTS
Visibility
10 SM
Flight Rules
VFR
Cloud Levels
  • Few at 5,000' AGL
  • Broken at 25,000' AGL
Temperature
32°C / 90°F
Dewpoint
19°C / 66°F
Heat Index
34°C / 93°F
Humidity
46%
Altimeter
29.92" Hg
Pressure
1013.22 hPa